Coban, Guatemala
Current Conditions -  °F | °C
As of 6:00 AM on Thursday 30 Oct 2014 (Local Time) from MGGT Reporting Station
Broken Clouds Broken Clouds  
Wind Chill: 64°   Ceiling: 1200
Heat Index: 64°   Visibility: 5mi
Dew Point: 63°   Wind: 5mph
Humidity: 94%   Direction: 360°N
Pressure: 30.21"   Gusts: NA
Location:  15.47°N, 90.38°W
Report Text: MGGT 301200Z 36004KT 8000 BKN012 18/17 Q1023 A3021 BR REDZ
Loading
Personal Weather Stations






























Interactive Weather Map
Tropical Storm Tracking
New forecast layout! Learn more

10-Day Weather Forecast

Advertisements
Track Severe Weather on mobile